sensor_id;sensor_type;location;lat;lon;timestamp;pressure;altitude;pressure_sealevel;temperature;humidity
73941;BME280;62294;48.554;10.202;2023-05-09T00:01:18;91403.94;;;10.91;100.00
73941;BME280;62294;48.554;10.202;2023-05-09T00:03:45;91397.97;;;10.94;100.00
73941;BME280;62294;48.554;10.202;2023-05-09T00:06:11;91380.69;;;11.00;100.00
73941;BME280;62294;48.554;10.202;2023-05-09T00:08:38;91354.34;;;11.07;100.00
73941;BME280;62294;48.554;10.202;2023-05-09T00:11:06;91384.56;;;10.91;100.00
73941;BME280;62294;48.554;10.202;2023-05-09T00:13:33;91403.50;;;10.77;100.00
73941;BME280;62294;48.554;10.202;2023-05-09T00:15:59;91388.47;;;10.81;100.00
73941;BME280;62294;48.554;10.202;2023-05-09T00:18:27;91383.03;;;10.90;100.00
73941;BME280;62294;48.554;10.202;2023-05-09T00:20:55;91385.47;;;10.83;100.00
73941;BME280;62294;48.554;10.202;2023-05-09T00:23:22;91374.06;;;10.82;100.00
73941;BME280;62294;48.554;10.202;2023-05-09T00:25:49;91371.75;;;10.81;100.00
73941;BME280;62294;48.554;10.202;2023-05-09T00:28:15;91350.81;;;10.91;100.00
73941;BME280;62294;48.554;10.202;2023-05-09T00:30:43;91336.44;;;10.92;100.00
73941;BME280;62294;48.554;10.202;2023-05-09T00:33:09;91329.69;;;10.95;100.00
73941;BME280;62294;48.554;10.202;2023-05-09T00:35:36;91350.72;;;10.88;100.00
73941;BME280;62294;48.554;10.202;2023-05-09T00:38:02;91343.06;;;10.86;100.00
73941;BME280;62294;48.554;10.202;2023-05-09T00:40:29;91355.59;;;10.86;100.00
73941;BME280;62294;48.554;10.202;2023-05-09T00:42:58;91356.59;;;10.81;100.00
73941;BME280;62294;48.554;10.202;2023-05-09T00:45:25;91340.00;;;10.84;100.00
73941;BME280;62294;48.554;10.202;2023-05-09T00:47:52;91368.97;;;10.77;100.00
73941;BME280;62294;48.554;10.202;2023-05-09T00:50:18;91377.41;;;10.67;100.00
73941;BME280;62294;48.554;10.202;2023-05-09T00:52:45;91389.22;;;10.57;100.00
73941;BME280;62294;48.554;10.202;2023-05-09T00:55:12;91414.66;;;10.46;100.00
73941;BME280;62294;48.554;10.202;2023-05-09T00:57:39;91413.66;;;10.39;100.00
73941;BME280;62294;48.554;10.202;2023-05-09T01:00:06;91421.94;;;10.37;100.00
73941;BME280;62294;48.554;10.202;2023-05-09T01:02:48;91427.25;;;10.37;100.00
73941;BME280;62294;48.554;10.202;2023-05-09T01:05:17;91430.91;;;10.33;100.00
73941;BME280;62294;48.554;10.202;2023-05-09T01:08:05;91431.44;;;10.26;100.00
73941;BME280;62294;48.554;10.202;2023-05-09T01:10:50;91425.78;;;10.28;100.00
73941;BME280;62294;48.554;10.202;2023-05-09T01:13:26;91437.50;;;10.15;100.00
73941;BME280;62294;48.554;10.202;2023-05-09T01:16:12;91453.66;;;10.01;100.00
73941;BME280;62294;48.554;10.202;2023-05-09T01:18:42;91451.53;;;9.94;100.00
73941;BME280;62294;48.554;10.202;2023-05-09T01:21:25;91466.75;;;9.85;100.00
73941;BME280;62294;48.554;10.202;2023-05-09T01:30:02;91462.53;;;9.64;100.00
73941;BME280;62294;48.554;10.202;2023-05-09T01:32:31;91468.19;;;9.62;100.00
73941;BME280;62294;48.554;10.202;2023-05-09T01:35:02;91457.13;;;9.60;100.00
73941;BME280;62294;48.554;10.202;2023-05-09T01:37:32;91459.06;;;9.51;100.00
73941;BME280;62294;48.554;10.202;2023-05-09T01:40:06;91454.94;;;9.42;100.00
73941;BME280;62294;48.554;10.202;2023-05-09T01:42:42;91450.16;;;9.35;100.00
73941;BME280;62294;48.554;10.202;2023-05-09T01:45:11;91440.63;;;9.34;100.00
73941;BME280;62294;48.554;10.202;2023-05-09T01:47:40;91447.41;;;9.23;100.00
73941;BME280;62294;48.554;10.202;2023-05-09T01:50:09;91438.88;;;9.17;100.00
73941;BME280;62294;48.554;10.202;2023-05-09T01:52:37;91440.94;;;9.12;100.00
73941;BME280;62294;48.554;10.202;2023-05-09T01:55:06;91449.06;;;9.07;100.00
73941;BME280;62294;48.554;10.202;2023-05-09T01:57:35;91461.59;;;8.98;100.00
73941;BME280;62294;48.554;10.202;2023-05-09T02:00:03;91465.06;;;8.90;100.00
73941;BME280;62294;48.554;10.202;2023-05-09T02:02:31;91464.78;;;8.83;100.00
73941;BME280;62294;48.554;10.202;2023-05-09T02:04:58;91459.78;;;8.81;100.00
73941;BME280;62294;48.554;10.202;2023-05-09T02:07:26;91459.22;;;8.76;100.00
73941;BME280;62294;48.554;10.202;2023-05-09T02:09:55;91476.78;;;8.72;100.00
73941;BME280;62294;48.554;10.202;2023-05-09T02:12:23;91608.69;;;8.78;100.00
73941;BME280;62294;48.554;10.202;2023-05-09T02:14:49;91594.00;;;8.81;100.00
73941;BME280;62294;48.554;10.202;2023-05-09T02:17:16;91627.97;;;8.79;100.00
73941;BME280;62294;48.554;10.202;2023-05-09T02:19:44;91638.53;;;8.79;100.00
73941;BME280;62294;48.554;10.202;2023-05-09T02:22:11;91637.59;;;8.83;100.00
73941;BME280;62294;48.554;10.202;2023-05-09T02:24:39;91639.78;;;8.90;100.00
73941;BME280;62294;48.554;10.202;2023-05-09T02:27:06;91676.88;;;8.73;100.00
73941;BME280;62294;48.554;10.202;2023-05-09T02:29:38;91708.00;;;8.58;100.00
73941;BME280;62294;48.554;10.202;2023-05-09T02:32:13;91693.84;;;8.63;100.00
73941;BME280;62294;48.554;10.202;2023-05-09T02:34:42;91672.97;;;8.79;100.00
73941;BME280;62294;48.554;10.202;2023-05-09T02:37:12;91659.09;;;8.82;100.00
73941;BME280;62294;48.554;10.202;2023-05-09T02:39:38;91668.13;;;8.81;100.00
73941;BME280;62294;48.554;10.202;2023-05-09T02:42:06;91678.72;;;8.81;100.00
73941;BME280;62294;48.554;10.202;2023-05-09T02:44:33;91695.56;;;8.68;100.00
73941;BME280;62294;48.554;10.202;2023-05-09T02:47:01;91679.19;;;8.74;100.00
73941;BME280;62294;48.554;10.202;2023-05-09T02:49:27;91679.06;;;8.71;100.00
73941;BME280;62294;48.554;10.202;2023-05-09T02:51:58;91664.41;;;8.82;100.00
73941;BME280;62294;48.554;10.202;2023-05-09T02:54:24;91645.72;;;8.87;100.00
73941;BME280;62294;48.554;10.202;2023-05-09T02:56:51;91641.94;;;8.88;100.00
73941;BME280;62294;48.554;10.202;2023-05-09T02:59:18;91618.75;;;8.93;100.00
73941;BME280;62294;48.554;10.202;2023-05-09T03:01:45;91609.84;;;8.98;100.00
73941;BME280;62294;48.554;10.202;2023-05-09T03:04:12;91606.13;;;8.99;100.00
73941;BME280;62294;48.554;10.202;2023-05-09T03:06:39;91603.94;;;9.01;100.00
73941;BME280;62294;48.554;10.202;2023-05-09T03:09:05;91589.09;;;9.08;100.00
73941;BME280;62294;48.554;10.202;2023-05-09T03:11:32;91589.25;;;9.12;100.00
73941;BME280;62294;48.554;10.202;2023-05-09T03:13:59;91598.94;;;9.08;100.00
73941;BME280;62294;48.554;10.202;2023-05-09T03:16:25;91609.81;;;9.06;100.00
73941;BME280;62294;48.554;10.202;2023-05-09T03:18:52;91616.84;;;9.02;100.00
73941;BME280;62294;48.554;10.202;2023-05-09T03:21:18;91610.78;;;9.02;100.00
73941;BME280;62294;48.554;10.202;2023-05-09T03:23:45;91622.00;;;8.99;100.00
73941;BME280;62294;48.554;10.202;2023-05-09T03:26:11;91615.59;;;9.00;100.00
73941;BME280;62294;48.554;10.202;2023-05-09T03:28:38;91616.22;;;8.97;100.00
73941;BME280;62294;48.554;10.202;2023-05-09T03:31:05;91611.56;;;9.02;100.00
73941;BME280;62294;48.554;10.202;2023-05-09T03:33:31;91603.75;;;9.06;100.00
73941;BME280;62294;48.554;10.202;2023-05-09T03:35:58;91605.16;;;9.12;100.00
73941;BME280;62294;48.554;10.202;2023-05-09T03:38:25;91586.22;;;9.22;100.00
73941;BME280;62294;48.554;10.202;2023-05-09T03:40:52;91574.56;;;9.23;100.00
73941;BME280;62294;48.554;10.202;2023-05-09T03:43:19;91582.19;;;9.24;100.00
73941;BME280;62294;48.554;10.202;2023-05-09T03:45:45;91570.31;;;9.31;100.00
73941;BME280;62294;48.554;10.202;2023-05-09T03:48:11;91555.97;;;9.32;100.00
73941;BME280;62294;48.554;10.202;2023-05-09T03:50:39;91579.53;;;9.24;100.00
73941;BME280;62294;48.554;10.202;2023-05-09T03:53:06;91566.56;;;9.32;100.00
73941;BME280;62294;48.554;10.202;2023-05-09T03:55:32;91562.03;;;9.32;100.00
73941;BME280;62294;48.554;10.202;2023-05-09T03:57:59;91583.13;;;9.20;100.00
73941;BME280;62294;48.554;10.202;2023-05-09T04:00:25;91582.53;;;9.14;100.00
73941;BME280;62294;48.554;10.202;2023-05-09T04:02:52;91598.44;;;9.06;100.00
73941;BME280;62294;48.554;10.202;2023-05-09T04:05:19;91598.00;;;9.04;100.00
73941;BME280;62294;48.554;10.202;2023-05-09T04:07:46;91607.03;;;9.03;100.00
73941;BME280;62294;48.554;10.202;2023-05-09T04:10:12;91603.94;;;9.01;100.00
73941;BME280;62294;48.554;10.202;2023-05-09T04:12:40;91617.19;;;9.01;100.00
73941;BME280;62294;48.554;10.202;2023-05-09T04:15:07;91613.72;;;9.09;100.00
73941;BME280;62294;48.554;10.202;2023-05-09T04:17:34;91603.38;;;9.24;100.00
73941;BME280;62294;48.554;10.202;2023-05-09T04:20:01;91602.41;;;9.29;100.00
73941;BME280;62294;48.554;10.202;2023-05-09T04:22:28;91594.25;;;9.43;100.00
73941;BME280;62294;48.554;10.202;2023-05-09T04:24:54;91592.72;;;9.42;100.00
73941;BME280;62294;48.554;10.202;2023-05-09T04:27:21;91578.13;;;9.56;100.00
73941;BME280;62294;48.554;10.202;2023-05-09T04:29:48;91565.75;;;9.69;100.00
73941;BME280;62294;48.554;10.202;2023-05-09T04:32:15;91566.31;;;9.74;100.00
73941;BME280;62294;48.554;10.202;2023-05-09T04:34:42;91559.56;;;9.85;100.00
73941;BME280;62294;48.554;10.202;2023-05-09T04:37:08;91562.84;;;9.82;100.00
73941;BME280;62294;48.554;10.202;2023-05-09T04:39:34;91576.09;;;9.82;100.00
73941;BME280;62294;48.554;10.202;2023-05-09T04:42:01;91591.56;;;9.80;100.00
73941;BME280;62294;48.554;10.202;2023-05-09T04:44:31;91584.78;;;9.91;100.00
73941;BME280;62294;48.554;10.202;2023-05-09T04:46:58;91600.41;;;9.84;100.00
73941;BME280;62294;48.554;10.202;2023-05-09T04:49:25;91642.00;;;9.63;100.00
73941;BME280;62294;48.554;10.202;2023-05-09T04:51:51;91652.88;;;9.70;100.00
73941;BME280;62294;48.554;10.202;2023-05-09T04:54:17;91669.06;;;9.77;100.00
73941;BME280;62294;48.554;10.202;2023-05-09T04:56:44;91677.47;;;9.79;100.00
73941;BME280;62294;48.554;10.202;2023-05-09T04:59:13;91651.16;;;10.04;100.00
73941;BME280;62294;48.554;10.202;2023-05-09T05:01:39;91646.28;;;10.14;100.00
73941;BME280;62294;48.554;10.202;2023-05-09T05:04:06;91600.69;;;10.53;100.00
73941;BME280;62294;48.554;10.202;2023-05-09T05:06:32;91579.97;;;10.80;100.00
73941;BME280;62294;48.554;10.202;2023-05-09T05:08:59;91580.56;;;10.85;100.00
73941;BME280;62294;48.554;10.202;2023-05-09T05:11:25;91570.19;;;11.04;100.00
73941;BME280;62294;48.554;10.202;2023-05-09T05:13:52;91602.16;;;10.96;100.00
73941;BME280;62294;48.554;10.202;2023-05-09T05:16:18;91636.81;;;10.99;100.00
73941;BME280;62294;48.554;10.202;2023-05-09T05:18:46;91676.00;;;11.02;100.00
73941;BME280;62294;48.554;10.202;2023-05-09T05:21:12;91743.28;;;10.94;100.00
73941;BME280;62294;48.554;10.202;2023-05-09T05:23:38;91811.44;;;10.90;100.00
73941;BME280;62294;48.554;10.202;2023-05-09T05:26:05;91898.59;;;10.67;100.00
73941;BME280;62294;48.554;10.202;2023-05-09T05:28:32;91957.66;;;10.56;100.00
73941;BME280;62294;48.554;10.202;2023-05-09T05:30:58;91954.22;;;10.93;100.00
73941;BME280;62294;48.554;10.202;2023-05-09T05:33:25;91990.78;;;10.96;100.00
73941;BME280;62294;48.554;10.202;2023-05-09T05:35:51;92027.13;;;11.04;100.00
73941;BME280;62294;48.554;10.202;2023-05-09T05:38:17;92086.72;;;11.03;100.00
73941;BME280;62294;48.554;10.202;2023-05-09T05:40:44;92088.91;;;11.39;100.00
73941;BME280;62294;48.554;10.202;2023-05-09T05:43:11;92178.44;;;11.01;100.00
73941;BME280;62294;48.554;10.202;2023-05-09T05:45:37;92188.88;;;11.23;100.00
73941;BME280;62294;48.554;10.202;2023-05-09T05:48:04;92235.47;;;11.20;100.00
73941;BME280;62294;48.554;10.202;2023-05-09T05:50:30;92246.22;;;11.41;100.00
73941;BME280;62294;48.554;10.202;2023-05-09T05:52:57;92291.44;;;11.32;100.00
73941;BME280;62294;48.554;10.202;2023-05-09T05:55:24;92306.13;;;11.56;100.00
73941;BME280;62294;48.554;10.202;2023-05-09T05:57:50;92318.34;;;11.57;100.00
73941;BME280;62294;48.554;10.202;2023-05-09T06:00:16;92350.84;;;11.62;100.00
73941;BME280;62294;48.554;10.202;2023-05-09T06:02:43;92354.13;;;12.02;100.00
73941;BME280;62294;48.554;10.202;2023-05-09T06:05:10;92342.31;;;12.58;100.00
73941;BME280;62294;48.554;10.202;2023-05-09T06:07:37;92278.03;;;13.71;100.00
73941;BME280;62294;48.554;10.202;2023-05-09T06:10:04;92233.03;;;14.90;100.00
73941;BME280;62294;48.554;10.202;2023-05-09T06:12:30;92290.53;;;16.04;100.00
73941;BME280;62294;48.554;10.202;2023-05-09T06:14:57;92592.50;;;16.31;100.00
73941;BME280;62294;48.554;10.202;2023-05-09T06:17:24;93009.75;;;15.22;100.00
73941;BME280;62294;48.554;10.202;2023-05-09T06:19:50;93239.66;;;15.02;100.00
73941;BME280;62294;48.554;10.202;2023-05-09T06:22:16;93463.47;;;14.84;100.00
73941;BME280;62294;48.554;10.202;2023-05-09T06:24:43;93552.03;;;14.82;100.00
73941;BME280;62294;48.554;10.202;2023-05-09T06:27:09;93694.94;;;14.13;100.00
73941;BME280;62294;48.554;10.202;2023-05-09T06:29:36;93678.94;;;14.99;100.00
73941;BME280;62294;48.554;10.202;2023-05-09T06:32:03;93665.38;;;16.01;100.00
73941;BME280;62294;48.554;10.202;2023-05-09T06:34:29;93782.84;;;16.47;100.00
73941;BME280;62294;48.554;10.202;2023-05-09T06:36:56;93751.59;;;18.39;100.00
73941;BME280;62294;48.554;10.202;2023-05-09T06:39:22;94096.88;;;17.56;100.00
73941;BME280;62294;48.554;10.202;2023-05-09T06:41:49;94184.56;;;17.52;100.00
73941;BME280;62294;48.554;10.202;2023-05-09T06:44:15;94274.91;;;16.98;100.00
73941;BME280;62294;48.554;10.202;2023-05-09T06:46:42;94297.41;;;17.25;100.00
73941;BME280;62294;48.554;10.202;2023-05-09T06:49:08;94305.00;;;17.58;100.00
73941;BME280;62294;48.554;10.202;2023-05-09T06:51:36;94306.59;;;18.74;100.00
73941;BME280;62294;48.554;10.202;2023-05-09T06:54:02;94441.75;;;19.97;100.00
73941;BME280;62294;48.554;10.202;2023-05-09T06:56:29;94649.13;;;20.46;100.00
73941;BME280;62294;48.554;10.202;2023-05-09T06:58:56;94732.00;;;21.62;100.00
73941;BME280;62294;48.554;10.202;2023-05-09T07:01:23;94852.75;;;20.63;100.00
73941;BME280;62294;48.554;10.202;2023-05-09T07:03:50;94862.28;;;20.38;100.00
73941;BME280;62294;48.554;10.202;2023-05-09T07:06:17;94900.03;;;20.91;100.00
73941;BME280;62294;48.554;10.202;2023-05-09T07:08:44;94985.19;;;19.45;100.00
73941;BME280;62294;48.554;10.202;2023-05-09T07:11:11;95002.84;;;17.66;100.00
73941;BME280;62294;48.554;10.202;2023-05-09T07:13:37;94892.16;;;18.02;100.00
73941;BME280;62294;48.554;10.202;2023-05-09T07:16:04;94881.38;;;18.02;100.00
73941;BME280;62294;48.554;10.202;2023-05-09T07:18:30;94898.50;;;17.31;100.00
73941;BME280;62294;48.554;10.202;2023-05-09T07:20:57;94839.97;;;19.44;100.00
73941;BME280;62294;48.554;10.202;2023-05-09T07:23:23;94906.47;;;19.70;100.00
73941;BME280;62294;48.554;10.202;2023-05-09T07:25:57;94959.16;;;19.90;100.00
73941;BME280;62294;48.554;10.202;2023-05-09T07:28:24;94834.94;;;21.01;100.00
73941;BME280;62294;48.554;10.202;2023-05-09T07:30:51;94932.53;;;20.46;100.00
73941;BME280;62294;48.554;10.202;2023-05-09T07:33:17;94901.81;;;21.43;100.00
73941;BME280;62294;48.554;10.202;2023-05-09T07:35:44;94917.25;;;23.05;100.00
73941;BME280;62294;48.554;10.202;2023-05-09T07:38:10;94986.72;;;20.01;100.00
73941;BME280;62294;48.554;10.202;2023-05-09T07:40:37;94909.84;;;20.78;100.00
73941;BME280;62294;48.554;10.202;2023-05-09T07:43:04;94896.19;;;21.23;100.00
73941;BME280;62294;48.554;10.202;2023-05-09T07:45:30;94916.97;;;20.52;100.00
73941;BME280;62294;48.554;10.202;2023-05-09T07:47:57;94883.25;;;20.41;100.00
73941;BME280;62294;48.554;10.202;2023-05-09T07:50:24;94881.09;;;20.82;100.00
73941;BME280;62294;48.554;10.202;2023-05-09T07:52:51;94867.59;;;20.82;100.00
73941;BME280;62294;48.554;10.202;2023-05-09T07:55:17;94878.34;;;23.48;100.00
73941;BME280;62294;48.554;10.202;2023-05-09T07:57:44;94979.78;;;22.83;100.00
73941;BME280;62294;48.554;10.202;2023-05-09T08:00:11;94998.75;;;22.49;100.00
73941;BME280;62294;48.554;10.202;2023-05-09T08:02:37;95036.13;;;20.59;100.00
73941;BME280;62294;48.554;10.202;2023-05-09T08:05:04;94836.41;;;19.70;100.00
73941;BME280;62294;48.554;10.202;2023-05-09T08:07:31;94699.84;;;20.92;100.00
73941;BME280;62294;48.554;10.202;2023-05-09T08:09:58;94727.78;;;20.79;100.00
73941;BME280;62294;48.554;10.202;2023-05-09T08:12:24;94687.66;;;21.12;100.00
73941;BME280;62294;48.554;10.202;2023-05-09T08:14:51;94650.69;;;21.84;100.00
73941;BME280;62294;48.554;10.202;2023-05-09T08:17:17;94627.59;;;22.63;100.00
73941;BME280;62294;48.554;10.202;2023-05-09T08:19:44;94874.72;;;22.89;100.00
73941;BME280;62294;48.554;10.202;2023-05-09T08:22:18;94932.25;;;21.57;100.00
73941;BME280;62294;48.554;10.202;2023-05-09T08:24:46;94857.44;;;21.27;100.00
73941;BME280;62294;48.554;10.202;2023-05-09T08:27:13;94867.63;;;22.76;100.00
73941;BME280;62294;48.554;10.202;2023-05-09T08:29:39;94943.56;;;23.51;100.00
73941;BME280;62294;48.554;10.202;2023-05-09T08:32:07;95049.22;;;23.05;100.00
73941;BME280;62294;48.554;10.202;2023-05-09T08:34:34;95006.41;;;21.73;100.00
73941;BME280;62294;48.554;10.202;2023-05-09T08:37:01;94999.25;;;22.77;100.00
73941;BME280;62294;48.554;10.202;2023-05-09T08:39:29;95075.50;;;23.47;100.00
73941;BME280;62294;48.554;10.202;2023-05-09T08:42:00;95138.19;;;24.97;100.00
73941;BME280;62294;48.554;10.202;2023-05-09T08:44:28;95207.50;;;21.47;100.00
73941;BME280;62294;48.554;10.202;2023-05-09T08:47:00;94795.16;;;21.66;100.00
73941;BME280;62294;48.554;10.202;2023-05-09T08:49:27;94889.94;;;21.53;100.00
73941;BME280;62294;48.554;10.202;2023-05-09T08:51:54;94788.22;;;21.00;100.00
73941;BME280;62294;48.554;10.202;2023-05-09T08:54:22;95014.44;;;21.96;100.00
73941;BME280;62294;48.554;10.202;2023-05-09T08:56:49;95156.69;;;21.35;100.00
73941;BME280;62294;48.554;10.202;2023-05-09T08:59:17;95164.09;;;21.74;100.00
73941;BME280;62294;48.554;10.202;2023-05-09T09:01:44;95128.81;;;23.43;100.00
73941;BME280;62294;48.554;10.202;2023-05-09T09:04:10;94348.06;;;23.62;100.00
73941;BME280;62294;48.554;10.202;2023-05-09T09:06:38;94120.56;;;23.33;100.00
73941;BME280;62294;48.554;10.202;2023-05-09T09:09:06;93867.59;;;22.54;100.00
73941;BME280;62294;48.554;10.202;2023-05-09T09:11:34;93694.03;;;22.40;100.00
73941;BME280;62294;48.554;10.202;2023-05-09T09:14:05;93513.22;;;23.64;100.00
73941;BME280;62294;48.554;10.202;2023-05-09T09:16:35;93558.94;;;23.24;100.00
73941;BME280;62294;48.554;10.202;2023-05-09T09:19:03;93619.56;;;23.35;100.00
73941;BME280;62294;48.554;10.202;2023-05-09T09:21:35;93430.34;;;22.41;100.00
73941;BME280;62294;48.554;10.202;2023-05-09T09:24:01;93534.09;;;21.08;100.00
73941;BME280;62294;48.554;10.202;2023-05-09T09:26:28;94876.53;;;21.31;100.00
73941;BME280;62294;48.554;10.202;2023-05-09T09:28:57;94952.22;;;22.55;100.00
73941;BME280;62294;48.554;10.202;2023-05-09T09:31:25;94853.44;;;21.25;100.00
73941;BME280;62294;48.554;10.202;2023-05-09T09:34:02;94714.63;;;21.98;100.00
73941;BME280;62294;48.554;10.202;2023-05-09T09:36:29;94620.44;;;20.76;100.00
73941;BME280;62294;48.554;10.202;2023-05-09T09:38:59;95005.56;;;19.19;100.00
73941;BME280;62294;48.554;10.202;2023-05-09T09:41:38;94646.25;;;18.98;100.00
73941;BME280;62294;48.554;10.202;2023-05-09T09:44:16;94300.50;;;22.80;100.00
73941;BME280;62294;48.554;10.202;2023-05-09T09:49:15;94949.59;;;25.94;100.00
73941;BME280;62294;48.554;10.202;2023-05-09T09:51:42;94824.94;;;24.67;100.00
73941;BME280;62294;48.554;10.202;2023-05-09T09:54:11;94696.53;;;23.89;100.00
73941;BME280;62294;48.554;10.202;2023-05-09T09:56:44;94558.41;;;24.96;100.00
73941;BME280;62294;48.554;10.202;2023-05-09T09:59:21;94557.59;;;21.39;100.00
73941;BME280;62294;48.554;10.202;2023-05-09T10:01:59;94738.97;;;23.61;100.00
73941;BME280;62294;48.554;10.202;2023-05-09T10:04:35;94738.66;;;21.99;100.00
73941;BME280;62294;48.554;10.202;2023-05-09T10:07:03;94708.25;;;22.11;100.00
73941;BME280;62294;48.554;10.202;2023-05-09T10:09:32;94670.16;;;23.65;100.00
73941;BME280;62294;48.554;10.202;2023-05-09T10:12:04;94648.06;;;23.99;100.00
73941;BME280;62294;48.554;10.202;2023-05-09T10:14:33;94470.91;;;24.51;100.00
73941;BME280;62294;48.554;10.202;2023-05-09T10:17:02;94324.16;;;24.91;100.00
73941;BME280;62294;48.554;10.202;2023-05-09T10:19:30;94301.09;;;24.85;100.00
73941;BME280;62294;48.554;10.202;2023-05-09T10:22:03;94299.06;;;23.43;100.00
73941;BME280;62294;48.554;10.202;2023-05-09T10:24:39;94260.66;;;26.03;100.00
73941;BME280;62294;48.554;10.202;2023-05-09T10:27:11;94284.06;;;25.03;100.00
73941;BME280;62294;48.554;10.202;2023-05-09T10:29:50;94230.59;;;25.07;100.00
73941;BME280;62294;48.554;10.202;2023-05-09T10:32:26;94341.06;;;24.84;100.00
73941;BME280;62294;48.554;10.202;2023-05-09T10:34:57;94334.16;;;22.46;100.00
73941;BME280;62294;48.554;10.202;2023-05-09T10:37:26;94381.84;;;22.39;100.00
73941;BME280;62294;48.554;10.202;2023-05-09T10:39:53;94408.56;;;23.06;100.00
73941;BME280;62294;48.554;10.202;2023-05-09T10:42:21;94429.69;;;23.12;100.00
73941;BME280;62294;48.554;10.202;2023-05-09T10:44:50;94410.34;;;22.36;100.00
73941;BME280;62294;48.554;10.202;2023-05-09T10:47:17;94471.63;;;24.48;100.00
73941;BME280;62294;48.554;10.202;2023-05-09T10:49:44;94587.91;;;25.37;100.00
73941;BME280;62294;48.554;10.202;2023-05-09T10:52:11;94469.13;;;24.83;100.00
73941;BME280;62294;48.554;10.202;2023-05-09T10:54:38;94565.59;;;24.64;100.00
73941;BME280;62294;48.554;10.202;2023-05-09T10:57:07;94559.78;;;24.14;100.00
73941;BME280;62294;48.554;10.202;2023-05-09T11:02:02;94458.59;;;20.71;100.00
73941;BME280;62294;48.554;10.202;2023-05-09T11:04:30;94356.53;;;21.32;100.00
73941;BME280;62294;48.554;10.202;2023-05-09T11:06:59;94648.34;;;23.41;100.00
73941;BME280;62294;48.554;10.202;2023-05-09T11:17:01;94484.72;;;25.13;100.00
73941;BME280;62294;48.554;10.202;2023-05-09T11:22:58;94465.75;;;25.45;100.00
73941;BME280;62294;48.554;10.202;2023-05-09T11:25:02;94495.84;;;24.81;100.00
73941;BME280;62294;48.554;10.202;2023-05-09T11:27:47;94578.13;;;23.27;100.00
73941;BME280;62294;48.554;10.202;2023-05-09T11:30:17;94651.00;;;22.58;100.00
73941;BME280;62294;48.554;10.202;2023-05-09T11:32:51;94696.38;;;23.61;100.00
73941;BME280;62294;48.554;10.202;2023-05-09T11:35:22;94718.00;;;24.84;100.00
73941;BME280;62294;48.554;10.202;2023-05-09T11:37:51;94616.97;;;25.33;100.00
73941;BME280;62294;48.554;10.202;2023-05-09T11:40:21;94579.53;;;24.75;100.00
73941;BME280;62294;48.554;10.202;2023-05-09T11:42:50;94582.56;;;24.86;100.00
73941;BME280;62294;48.554;10.202;2023-05-09T11:45:24;94622.78;;;25.60;100.00
73941;BME280;62294;48.554;10.202;2023-05-09T11:47:52;94674.25;;;25.80;100.00
73941;BME280;62294;48.554;10.202;2023-05-09T11:50:19;94770.56;;;26.31;100.00
73941;BME280;62294;48.554;10.202;2023-05-09T11:52:47;94951.66;;;27.05;100.00
73941;BME280;62294;48.554;10.202;2023-05-09T11:55:15;95007.22;;;28.02;100.00
73941;BME280;62294;48.554;10.202;2023-05-09T11:57:47;95200.00;;;27.36;100.00
73941;BME280;62294;48.554;10.202;2023-05-09T12:00:19;95174.28;;;26.97;100.00
73941;BME280;62294;48.554;10.202;2023-05-09T12:02:46;95210.84;;;25.91;100.00
73941;BME280;62294;48.554;10.202;2023-05-09T12:05:14;95192.13;;;26.01;100.00
73941;BME280;62294;48.554;10.202;2023-05-09T12:07:41;94989.50;;;22.76;100.00
73941;BME280;62294;48.554;10.202;2023-05-09T12:10:12;94919.84;;;23.31;100.00
73941;BME280;62294;48.554;10.202;2023-05-09T12:12:47;94733.88;;;23.39;100.00
73941;BME280;62294;48.554;10.202;2023-05-09T12:15:15;94640.34;;;25.22;100.00
73941;BME280;62294;48.554;10.202;2023-05-09T12:17:44;94642.41;;;22.27;100.00
73941;BME280;62294;48.554;10.202;2023-05-09T12:20:13;94079.22;;;21.72;100.00
73941;BME280;62294;48.554;10.202;2023-05-09T12:22:41;94297.53;;;23.70;100.00
73941;BME280;62294;48.554;10.202;2023-05-09T12:25:09;94750.84;;;24.22;100.00
73941;BME280;62294;48.554;10.202;2023-05-09T12:27:37;94835.75;;;24.43;100.00
73941;BME280;62294;48.554;10.202;2023-05-09T12:30:06;94858.88;;;26.30;100.00
73941;BME280;62294;48.554;10.202;2023-05-09T12:32:36;94841.28;;;25.88;100.00
73941;BME280;62294;48.554;10.202;2023-05-09T12:35:08;94867.53;;;23.68;100.00
73941;BME280;62294;48.554;10.202;2023-05-09T12:37:36;94831.91;;;22.10;100.00
73941;BME280;62294;48.554;10.202;2023-05-09T12:42:31;94719.25;;;24.98;100.00
73941;BME280;62294;48.554;10.202;2023-05-09T12:45:00;94986.00;;;26.02;100.00
73941;BME280;62294;48.554;10.202;2023-05-09T12:47:30;94918.66;;;26.66;100.00
73941;BME280;62294;48.554;10.202;2023-05-09T12:50:04;94994.72;;;27.70;100.00
73941;BME280;62294;48.554;10.202;2023-05-09T12:52:42;95073.44;;;27.84;100.00
73941;BME280;62294;48.554;10.202;2023-05-09T12:55:28;95680.50;;;27.84;100.00
73941;BME280;62294;48.554;10.202;2023-05-09T12:57:58;95688.50;;;27.89;100.00
73941;BME280;62294;48.554;10.202;2023-05-09T13:00:25;95680.63;;;28.08;100.00
73941;BME280;62294;48.554;10.202;2023-05-09T13:02:51;95677.66;;;28.13;100.00
73941;BME280;62294;48.554;10.202;2023-05-09T13:05:20;95683.09;;;27.07;100.00
73941;BME280;62294;48.554;10.202;2023-05-09T13:07:50;95695.91;;;26.19;100.00
73941;BME280;62294;48.554;10.202;2023-05-09T13:10:25;95703.59;;;24.71;100.00
73941;BME280;62294;48.554;10.202;2023-05-09T13:12:53;95771.31;;;24.20;100.00